createdAt,value
2023-04-20T00:00:49.003Z,14.67
2023-04-20T00:03:21.752Z,15.43
2023-04-20T00:05:51.597Z,14.07
2023-04-20T00:08:18.773Z,14.33
2023-04-20T00:10:46.088Z,14.93
2023-04-20T00:13:13.204Z,14.23
2023-04-20T00:15:39.944Z,15.00
2023-04-20T00:18:07.176Z,14.57
2023-04-20T00:20:35.152Z,14.57
2023-04-20T00:23:02.859Z,14.13
2023-04-20T00:25:30.572Z,14.03
2023-04-20T00:27:58.258Z,14.87
2023-04-20T00:30:25.033Z,14.70
2023-04-20T00:32:52.113Z,13.70
2023-04-20T00:35:18.971Z,14.63
2023-04-20T00:37:46.188Z,14.73
2023-04-20T00:40:12.956Z,14.10
2023-04-20T00:42:42.892Z,13.30
2023-04-20T00:45:10.719Z,13.57
2023-04-20T00:47:38.307Z,13.47
2023-04-20T00:50:06.799Z,13.47
2023-04-20T00:52:34.257Z,14.43
2023-04-20T00:55:01.740Z,13.30
2023-04-20T00:57:29.474Z,13.90
2023-04-20T00:59:56.202Z,15.23
2023-04-20T01:02:23.508Z,13.77
2023-04-20T01:04:50.810Z,13.67
2023-04-20T01:07:18.197Z,13.90
2023-04-20T01:09:44.958Z,13.47
2023-04-20T01:12:12.088Z,13.80
2023-04-20T01:14:38.871Z,13.77
2023-04-20T01:17:06.081Z,13.13
2023-04-20T01:19:33.573Z,14.63
2023-04-20T01:22:02.598Z,13.57
2023-04-20T01:24:29.424Z,13.23
2023-04-20T01:26:58.777Z,14.33
2023-04-20T01:29:25.784Z,13.63
2023-04-20T01:31:52.824Z,14.23
2023-04-20T01:34:19.590Z,14.63
2023-04-20T01:36:46.688Z,13.73
2023-04-20T01:39:13.441Z,13.47
2023-04-20T01:41:40.725Z,14.80
2023-04-20T01:44:07.497Z,14.70
2023-04-20T01:46:39.067Z,15.57
2023-04-20T01:49:08.062Z,13.60
2023-04-20T01:51:35.622Z,14.13
2023-04-20T01:54:03.088Z,16.03
2023-04-20T01:56:30.233Z,13.97
2023-04-20T01:58:58.644Z,15.07
2023-04-20T02:01:27.357Z,15.73
2023-04-20T02:03:54.365Z,14.77
2023-04-20T02:06:21.713Z,15.27
2023-04-20T02:08:48.619Z,15.63
2023-04-20T02:11:15.644Z,16.47
2023-04-20T02:13:42.382Z,18.13
2023-04-20T02:16:09.537Z,18.10
2023-04-20T02:18:37.360Z,19.70
2023-04-20T02:21:05.242Z,17.10
2023-04-20T02:23:32.034Z,20.00
2023-04-20T02:25:59.136Z,19.63
2023-04-20T02:28:25.847Z,22.57
2023-04-20T02:30:52.933Z,22.20
2023-04-20T02:33:21.722Z,22.83
2023-04-20T02:35:49.080Z,22.47
2023-04-20T02:38:15.858Z,22.90
2023-04-20T02:40:42.863Z,22.03
2023-04-20T02:43:10.090Z,20.93
2023-04-20T02:45:38.844Z,23.00
2023-04-20T02:48:07.267Z,22.37
2023-04-20T02:50:36.291Z,22.33
2023-04-20T02:53:11.005Z,20.80
2023-04-20T02:55:38.967Z,22.23
2023-04-20T02:58:17.715Z,21.67
2023-04-20T03:01:04.197Z,23.93
2023-04-20T03:03:32.607Z,21.37
2023-04-20T03:06:00.036Z,22.37
2023-04-20T03:08:27.176Z,21.70
2023-04-20T03:10:56.488Z,22.10
2023-04-20T03:13:23.523Z,23.03
2023-04-20T03:15:55.147Z,20.47
2023-04-20T03:18:36.746Z,21.67
2023-04-20T03:21:03.918Z,21.40
2023-04-20T03:23:31.829Z,20.43
2023-04-20T03:26:01.674Z,22.10
2023-04-20T03:28:43.806Z,21.33
2023-04-20T03:31:14.780Z,22.70
2023-04-20T03:33:41.764Z,19.97
2023-04-20T03:36:09.471Z,21.83
2023-04-20T03:38:36.885Z,20.23
2023-04-20T03:41:03.972Z,20.67
2023-04-20T03:43:30.754Z,21.83
2023-04-20T03:45:57.885Z,20.23
2023-04-20T03:48:24.749Z,21.10
2023-04-20T03:50:52.693Z,20.87
2023-04-20T03:53:19.555Z,21.03
2023-04-20T03:55:46.831Z,20.47
2023-04-20T03:58:17.651Z,20.60
2023-04-20T04:01:03.192Z,19.10
2023-04-20T04:03:31.663Z,18.93
2023-04-20T04:05:58.866Z,19.60
2023-04-20T04:08:26.750Z,19.27
2023-04-20T04:10:54.077Z,18.20
2023-04-20T04:13:20.888Z,18.53
2023-04-20T04:15:47.997Z,16.90
2023-04-20T04:18:15.644Z,16.90
2023-04-20T04:20:43.123Z,16.70
2023-04-20T04:23:11.773Z,16.80
2023-04-20T04:25:48.692Z,16.83
2023-04-20T04:28:18.582Z,17.27
2023-04-20T04:30:58.041Z,17.33
2023-04-20T04:33:25.385Z,16.40
2023-04-20T04:35:53.660Z,14.73
2023-04-20T04:38:21.034Z,13.53
2023-04-20T04:40:50.082Z,13.60
2023-04-20T04:43:16.827Z,13.57
2023-04-20T04:45:50.880Z,12.83
2023-04-20T04:48:19.782Z,13.13
2023-04-20T04:50:46.818Z,12.73
2023-04-20T04:53:13.560Z,13.77
2023-04-20T04:55:40.742Z,13.60
2023-04-20T04:58:07.493Z,14.07
2023-04-20T05:00:34.504Z,15.00
2023-04-20T05:03:01.371Z,15.73
2023-04-20T05:05:28.478Z,14.83
2023-04-20T05:07:55.330Z,14.73
2023-04-20T05:10:22.423Z,13.57
2023-04-20T05:12:49.173Z,14.07
2023-04-20T05:15:16.187Z,13.37
2023-04-20T05:17:43.105Z,12.57
2023-04-20T05:20:11.622Z,13.33
2023-04-20T05:22:38.410Z,12.27
2023-04-20T05:25:06.777Z,12.13
2023-04-20T05:27:34.053Z,12.03
2023-04-20T05:30:13.021Z,11.73
2023-04-20T05:32:43.811Z,12.17
2023-04-20T05:35:10.816Z,11.87
2023-04-20T05:37:37.537Z,12.80
2023-04-20T05:40:05.463Z,13.00
2023-04-20T05:42:32.241Z,12.10
2023-04-20T05:44:59.269Z,12.57
2023-04-20T05:47:27.513Z,12.50
2023-04-20T05:49:54.580Z,12.10
2023-04-20T05:52:21.299Z,12.70
2023-04-20T05:54:49.720Z,12.30
2023-04-20T05:57:16.610Z,11.18
2023-04-20T05:59:44.078Z,12.63
2023-04-20T06:02:10.813Z,11.27
2023-04-20T06:04:38.360Z,11.93
2023-04-20T06:07:05.271Z,10.93
2023-04-20T06:09:32.249Z,10.30
2023-04-20T06:12:00.394Z,10.65
2023-04-20T06:14:27.497Z,10.95
2023-04-20T06:16:54.245Z,11.70
2023-04-20T06:19:21.259Z,11.35
2023-04-20T06:21:48.021Z,10.73
2023-04-20T06:24:15.010Z,10.85
2023-04-20T06:26:41.707Z,10.88
2023-04-20T06:29:08.715Z,10.77
2023-04-20T06:31:35.993Z,10.35
2023-04-20T06:34:03.068Z,10.35
2023-04-20T06:36:30.617Z,9.30
2023-04-20T06:38:57.641Z,9.35
2023-04-20T06:41:24.384Z,9.35
2023-04-20T06:43:51.599Z,9.02
2023-04-20T06:46:18.458Z,8.50
2023-04-20T06:48:45.437Z,10.50
2023-04-20T06:51:13.615Z,8.90
2023-04-20T06:53:40.767Z,8.63
2023-04-20T06:56:07.945Z,8.85
2023-04-20T06:58:35.129Z,8.88
2023-04-20T07:01:02.305Z,7.70
2023-04-20T07:03:29.530Z,8.50
2023-04-20T07:05:56.287Z,9.32
2023-04-20T07:08:23.522Z,8.30
2023-04-20T07:10:50.373Z,8.80
2023-04-20T07:13:17.581Z,8.80
2023-04-20T07:15:45.590Z,9.20
2023-04-20T07:18:12.701Z,9.90
2023-04-20T07:20:39.718Z,10.32
2023-04-20T07:23:06.742Z,9.43
2023-04-20T07:25:33.518Z,9.23
2023-04-20T07:28:00.588Z,9.07
2023-04-20T07:30:27.481Z,9.43
2023-04-20T07:32:54.540Z,9.65
2023-04-20T07:35:21.497Z,9.80
2023-04-20T07:37:48.568Z,9.60
2023-04-20T07:40:16.874Z,9.98
2023-04-20T07:42:44.062Z,9.18
2023-04-20T07:45:12.673Z,9.52
2023-04-20T07:47:39.784Z,9.07
2023-04-20T07:50:07.500Z,9.35
2023-04-20T07:52:34.507Z,8.10
2023-04-20T07:55:01.454Z,8.45
2023-04-20T07:57:29.207Z,8.80
2023-04-20T07:59:56.070Z,9.23
2023-04-20T08:02:23.196Z,8.80
2023-04-20T08:04:50.521Z,9.00
2023-04-20T08:07:18.993Z,9.05
2023-04-20T08:09:45.860Z,8.98
2023-04-20T08:12:13.128Z,8.25
2023-04-20T08:14:41.293Z,8.27
2023-04-20T08:17:08.546Z,8.80
2023-04-20T08:19:35.311Z,8.80
2023-04-20T08:22:03.422Z,9.00
2023-04-20T08:24:30.236Z,9.02
2023-04-20T08:26:59.230Z,8.73
2023-04-20T08:29:26.466Z,8.85
2023-04-20T08:31:53.793Z,8.20
2023-04-20T08:34:20.665Z,7.90
2023-04-20T08:36:47.732Z,8.35
2023-04-20T08:39:19.288Z,7.80
2023-04-20T08:41:47.987Z,8.65
2023-04-20T08:44:14.969Z,7.82
2023-04-20T08:46:46.985Z,8.13
2023-04-20T08:49:16.652Z,8.13
2023-04-20T08:51:44.877Z,8.07
2023-04-20T08:54:12.494Z,7.95
2023-04-20T08:56:45.677Z,8.45
2023-04-20T08:59:14.301Z,7.55
2023-04-20T09:01:42.483Z,7.10
2023-04-20T09:04:29.565Z,7.22
2023-04-20T09:06:56.835Z,6.97
2023-04-20T09:09:25.275Z,7.50
2023-04-20T09:12:03.370Z,6.70
2023-04-20T09:14:31.377Z,6.60
2023-04-20T09:17:02.742Z,6.55
2023-04-20T09:19:30.402Z,7.32
2023-04-20T09:22:00.125Z,6.60
2023-04-20T09:24:34.696Z,7.40
2023-04-20T09:27:14.012Z,7.40
2023-04-20T09:29:40.799Z,7.68
2023-04-20T09:32:07.873Z,7.95
2023-04-20T09:34:45.027Z,6.95
2023-04-20T09:37:16.128Z,6.95
2023-04-20T09:39:44.463Z,7.45
2023-04-20T09:42:16.417Z,7.68
2023-04-20T09:44:43.874Z,7.38
2023-04-20T09:47:18.934Z,6.75
2023-04-20T09:49:49.223Z,7.20
2023-04-20T09:52:20.494Z,6.75
2023-04-20T09:54:47.321Z,7.22
2023-04-20T09:57:15.065Z,7.97
2023-04-20T09:59:46.961Z,7.07
2023-04-20T10:02:14.690Z,7.88
2023-04-20T10:05:01.820Z,7.15
2023-04-20T10:07:31.761Z,7.60
2023-04-20T10:10:13.424Z,7.43
2023-04-20T10:13:07.002Z,6.85
2023-04-20T10:15:41.624Z,6.90
2023-04-20T10:18:24.926Z,7.07
2023-04-20T10:21:04.347Z,7.40
2023-04-20T10:23:31.542Z,7.28
2023-04-20T10:26:00.627Z,7.80
2023-04-20T10:28:41.954Z,7.35
2023-04-20T10:31:12.965Z,6.57
2023-04-20T10:33:51.181Z,6.47
2023-04-20T10:36:26.760Z,8.10
2023-04-20T10:38:53.879Z,7.25
2023-04-20T10:41:21.175Z,6.55
2023-04-20T10:43:48.294Z,6.65
2023-04-20T10:46:21.506Z,6.32
2023-04-20T10:48:59.189Z,7.38
2023-04-20T10:51:26.133Z,6.55
2023-04-20T10:54:00.480Z,6.00
2023-04-20T10:56:27.390Z,5.55
2023-04-20T10:58:54.596Z,5.97
2023-04-20T11:01:21.492Z,5.53
2023-04-20T11:03:52.020Z,5.82
2023-04-20T11:06:18.926Z,6.50
2023-04-20T11:08:46.491Z,5.75
2023-04-20T11:11:25.448Z,5.95
2023-04-20T11:13:52.491Z,6.32
2023-04-20T11:16:19.796Z,6.50
2023-04-20T11:18:54.052Z,6.47
2023-04-20T11:21:22.557Z,5.68
2023-04-20T11:23:50.314Z,5.30
2023-04-20T11:26:17.576Z,5.97
2023-04-20T11:28:55.858Z,6.03
2023-04-20T11:31:23.908Z,6.28
2023-04-20T11:33:50.933Z,6.47
2023-04-20T11:36:26.551Z,5.75
2023-04-20T11:38:53.340Z,6.65
2023-04-20T11:41:21.665Z,6.97
2023-04-20T11:43:49.121Z,6.32
2023-04-20T11:46:18.110Z,6.90
2023-04-20T11:48:45.817Z,7.68
2023-04-20T11:51:13.437Z,7.78
2023-04-20T11:53:41.456Z,7.20
2023-04-20T11:56:09.185Z,7.15
2023-04-20T11:58:36.513Z,7.93
2023-04-20T12:01:05.360Z,6.60
2023-04-20T12:03:32.503Z,6.68
2023-04-20T12:05:59.808Z,7.18
2023-04-20T12:08:26.548Z,6.53
2023-04-20T12:10:53.761Z,6.75
2023-04-20T12:13:20.505Z,6.28
2023-04-20T12:15:47.590Z,6.97
2023-04-20T12:18:14.417Z,6.13
2023-04-20T12:20:41.391Z,6.50
2023-04-20T12:23:08.194Z,6.35
2023-04-20T12:25:35.160Z,6.68
2023-04-20T12:28:06.722Z,6.15
2023-04-20T12:30:35.321Z,6.68
2023-04-20T12:33:03.453Z,6.50
2023-04-20T12:35:30.541Z,6.28
2023-04-20T12:37:57.291Z,6.90
2023-04-20T12:40:24.689Z,5.50
2023-04-20T12:42:51.485Z,6.38
2023-04-20T12:45:18.649Z,7.00
2023-04-20T12:47:45.497Z,5.47
2023-04-20T12:50:13.051Z,6.10
2023-04-20T12:52:39.914Z,5.32
2023-04-20T12:55:07.935Z,5.03
2023-04-20T12:57:34.674Z,5.38
2023-04-20T13:00:06.108Z,4.78
2023-04-20T13:02:33.797Z,5.63
2023-04-20T13:05:01.051Z,5.97
2023-04-20T13:07:28.044Z,5.00
2023-04-20T13:09:55.134Z,6.88
2023-04-20T13:12:21.894Z,5.03
2023-04-20T13:14:49.179Z,5.70
2023-04-20T13:17:15.921Z,5.47
2023-04-20T13:19:43.336Z,4.25
2023-04-20T13:22:11.838Z,4.53
2023-04-20T13:24:40.295Z,4.32
2023-04-20T13:27:07.006Z,4.10
2023-04-20T13:29:34.139Z,3.65
2023-04-20T13:32:01.041Z,5.82
2023-04-20T13:34:28.122Z,6.18
2023-04-20T13:36:55.055Z,4.20
2023-04-20T13:39:22.355Z,3.88
2023-04-20T13:41:49.403Z,4.03
2023-04-20T13:44:16.624Z,3.28
2023-04-20T13:46:46.303Z,4.10
2023-04-20T13:49:13.653Z,3.80
2023-04-20T13:51:40.797Z,4.32
2023-04-20T13:54:08.167Z,6.30
2023-04-20T13:56:35.166Z,4.53
2023-04-20T13:59:04.015Z,4.75
2023-04-20T14:01:31.545Z,4.88
2023-04-20T14:03:59.147Z,4.47
2023-04-20T14:06:27.573Z,3.95
2023-04-20T14:08:54.766Z,3.63
2023-04-20T14:11:21.545Z,3.90
2023-04-20T14:13:49.209Z,3.97
2023-04-20T14:16:16.136Z,4.00
2023-04-20T14:18:43.336Z,3.15
2023-04-20T14:21:10.089Z,3.85
2023-04-20T14:23:37.286Z,3.55
2023-04-20T14:26:04.548Z,4.00
2023-04-20T14:28:33.467Z,4.10
2023-04-20T14:31:02.364Z,3.30
2023-04-20T14:33:29.468Z,3.53
2023-04-20T14:35:56.149Z,4.57
2023-04-20T14:38:24.716Z,5.65
2023-04-20T14:40:52.454Z,3.22
2023-04-20T14:43:19.458Z,6.05
2023-04-20T14:45:46.808Z,4.97
2023-04-20T14:48:13.957Z,4.05
2023-04-20T14:50:40.915Z,3.42
2023-04-20T14:53:09.477Z,3.35
2023-04-20T14:55:36.252Z,3.45
2023-04-20T14:58:03.372Z,3.33
2023-04-20T15:00:30.135Z,4.20
2023-04-20T15:02:57.435Z,3.20
2023-04-20T15:05:26.243Z,3.05
2023-04-20T15:07:53.392Z,3.30
2023-04-20T15:10:21.509Z,3.63
2023-04-20T15:12:48.870Z,3.50
2023-04-20T15:15:16.936Z,3.15
2023-04-20T15:17:46.496Z,3.47
2023-04-20T15:20:15.219Z,3.15
2023-04-20T15:22:42.294Z,3.28
2023-04-20T15:25:09.680Z,4.40
2023-04-20T15:27:36.761Z,3.50
2023-04-20T15:30:04.175Z,3.88
2023-04-20T15:32:33.805Z,2.70
2023-04-20T15:35:01.142Z,3.92
2023-04-20T15:37:28.684Z,3.45
2023-04-20T15:39:56.108Z,4.40
2023-04-20T15:42:23.238Z,5.63
2023-04-20T15:44:49.919Z,5.57
2023-04-20T15:47:16.967Z,5.20
2023-04-20T15:49:43.737Z,6.90
2023-04-20T15:52:10.699Z,6.60
2023-04-20T15:54:37.963Z,4.32
2023-04-20T15:57:05.332Z,4.40
2023-04-20T15:59:32.362Z,4.18
2023-04-20T16:01:59.691Z,5.75
2023-04-20T16:04:26.859Z,4.43
2023-04-20T16:06:55.117Z,3.55
2023-04-20T16:09:23.615Z,3.75
2023-04-20T16:11:51.052Z,5.60
2023-04-20T16:14:18.150Z,4.75
2023-04-20T16:16:45.380Z,5.05
2023-04-20T16:19:13.743Z,4.93
2023-04-20T16:21:41.016Z,4.75
2023-04-20T16:24:07.838Z,4.78
2023-04-20T16:26:34.856Z,4.57
2023-04-20T16:29:01.910Z,4.78
2023-04-20T16:31:29.595Z,5.03
2023-04-20T16:33:57.258Z,5.00
2023-04-20T16:36:24.385Z,4.43
2023-04-20T16:38:51.070Z,4.63
2023-04-20T16:41:18.140Z,4.93
2023-04-20T16:43:44.989Z,4.55
2023-04-20T16:46:13.505Z,5.13
2023-04-20T16:48:40.311Z,4.80
2023-04-20T16:51:07.433Z,4.75
2023-04-20T16:53:34.799Z,5.25
2023-04-20T16:56:02.629Z,5.10
2023-04-20T16:58:29.380Z,5.05
2023-04-20T17:00:56.598Z,5.32
2023-04-20T17:03:23.548Z,5.50
2023-04-20T17:05:50.855Z,5.18
2023-04-20T17:08:17.647Z,5.93
2023-04-20T17:10:44.721Z,5.88
2023-04-20T17:13:11.554Z,6.18
2023-04-20T17:15:40.091Z,6.70
2023-04-20T17:18:07.569Z,7.28
2023-04-20T17:20:34.719Z,6.00
2023-04-20T17:23:01.397Z,6.15
2023-04-20T17:25:28.389Z,6.50
2023-04-20T17:27:55.169Z,6.90
2023-04-20T17:30:22.228Z,7.00
2023-04-20T17:32:48.931Z,6.43
2023-04-20T17:35:16.046Z,6.10
2023-04-20T17:37:42.783Z,6.50
2023-04-20T17:40:09.962Z,5.88
2023-04-20T17:42:36.743Z,6.40
2023-04-20T17:45:06.090Z,6.50
2023-04-20T17:47:33.059Z,6.53
2023-04-20T17:50:00.158Z,7.13
2023-04-20T17:52:27.205Z,8.40
2023-04-20T17:54:54.881Z,7.35
2023-04-20T17:57:21.660Z,8.30
2023-04-20T17:59:48.642Z,8.75
2023-04-20T18:02:15.973Z,9.23
2023-04-20T18:04:43.775Z,8.90
2023-04-20T18:07:13.133Z,11.27
2023-04-20T18:09:40.216Z,10.30
2023-04-20T18:12:08.618Z,11.02
2023-04-20T18:14:35.792Z,10.23
2023-04-20T18:17:03.206Z,11.20
2023-04-20T18:19:30.353Z,10.73
2023-04-20T18:21:57.139Z,10.07
2023-04-20T18:24:24.165Z,10.63
2023-04-20T18:26:51.003Z,9.90
2023-04-20T18:29:18.104Z,9.77
2023-04-20T18:31:46.482Z,10.07
2023-04-20T18:34:15.040Z,9.85
2023-04-20T18:36:41.956Z,9.75
2023-04-20T18:39:09.645Z,9.73
2023-04-20T18:41:36.908Z,9.70
2023-04-20T18:44:04.281Z,9.77
2023-04-20T18:46:31.067Z,11.18
2023-04-20T18:48:58.130Z,9.43
2023-04-20T18:51:24.995Z,10.82
2023-04-20T18:53:52.790Z,10.27
2023-04-20T18:56:19.470Z,10.25
2023-04-20T18:58:46.428Z,10.68
2023-04-20T19:01:13.246Z,11.30
2023-04-20T19:03:40.535Z,12.57
2023-04-20T19:06:07.415Z,11.90
2023-04-20T19:08:34.705Z,12.13
2023-04-20T19:11:01.646Z,12.27
2023-04-20T19:13:28.654Z,12.38
2023-04-20T19:15:58.858Z,12.35
2023-04-20T19:18:26.791Z,12.45
2023-04-20T19:20:54.330Z,12.32
2023-04-20T19:23:22.132Z,12.55
2023-04-20T19:25:49.027Z,12.13
2023-04-20T19:28:16.342Z,11.90
2023-04-20T19:30:43.116Z,12.55
2023-04-20T19:33:10.264Z,13.43
2023-04-20T19:35:37.136Z,12.63
2023-04-20T19:38:04.148Z,13.23
2023-04-20T19:40:30.919Z,13.43
2023-04-20T19:42:57.970Z,12.98
2023-04-20T19:45:25.125Z,13.07
2023-04-20T19:47:52.259Z,13.40
2023-04-20T19:50:19.165Z,14.32
2023-04-20T19:52:46.227Z,13.50
2023-04-20T19:55:13.447Z,14.18
2023-04-20T19:57:40.573Z,13.40
2023-04-20T20:00:08.779Z,13.65
2023-04-20T20:02:40.425Z,13.97
2023-04-20T20:05:07.784Z,14.15
2023-04-20T20:07:35.760Z,14.70
2023-04-20T20:10:03.941Z,14.52
2023-04-20T20:12:31.170Z,14.98
2023-04-20T20:14:57.891Z,14.95
2023-04-20T20:17:25.230Z,14.73
2023-04-20T20:19:53.791Z,14.18
2023-04-20T20:22:22.160Z,14.20
2023-04-20T20:24:51.129Z,14.57
2023-04-20T20:27:18.265Z,14.52
2023-04-20T20:29:45.198Z,14.68
2023-04-20T20:32:12.144Z,13.87
2023-04-20T20:34:39.068Z,13.80
2023-04-20T20:37:06.243Z,14.43
2023-04-20T20:39:32.999Z,14.73
2023-04-20T20:42:01.838Z,13.90
2023-04-20T20:44:32.704Z,13.30
2023-04-20T20:47:00.710Z,13.50
2023-04-20T20:49:27.709Z,14.43
2023-04-20T20:51:54.828Z,13.50
2023-04-20T20:54:21.576Z,13.13
2023-04-20T20:56:48.635Z,14.07
2023-04-20T20:59:15.508Z,15.20
2023-04-20T21:01:42.655Z,14.35
2023-04-20T21:04:09.564Z,14.73
2023-04-20T21:06:36.672Z,13.27
2023-04-20T21:09:04.269Z,13.87
2023-04-20T21:11:31.378Z,14.10
2023-04-20T21:14:01.919Z,14.40
2023-04-20T21:16:29.388Z,13.80
2023-04-20T21:18:56.275Z,14.10
2023-04-20T21:21:23.317Z,13.93
2023-04-20T21:23:50.327Z,14.47
2023-04-20T21:26:17.390Z,14.20
2023-04-20T21:28:44.257Z,15.10
2023-04-20T21:31:11.666Z,13.35
2023-04-20T21:33:38.482Z,13.00
2023-04-20T21:36:05.916Z,14.32
2023-04-20T21:38:32.723Z,13.17
2023-04-20T21:40:59.776Z,13.60
2023-04-20T21:43:26.510Z,12.87
2023-04-20T21:45:53.504Z,13.03
2023-04-20T21:48:20.300Z,12.98
2023-04-20T21:50:47.431Z,12.83
2023-04-20T21:53:14.147Z,13.87
2023-04-20T21:55:41.407Z,12.67
2023-04-20T21:58:08.167Z,12.90
2023-04-20T22:00:35.188Z,12.30
2023-04-20T22:03:02.095Z,12.40
2023-04-20T22:05:32.146Z,12.90
2023-04-20T22:07:58.967Z,13.50
2023-04-20T22:10:26.334Z,13.17
2023-04-20T22:12:53.119Z,12.50
2023-04-20T22:15:22.282Z,12.00
2023-04-20T22:17:49.094Z,13.00
2023-04-20T22:20:19.112Z,12.60
2023-04-20T22:22:46.718Z,12.63
2023-04-20T22:25:13.745Z,12.23
2023-04-20T22:27:40.714Z,14.37
2023-04-20T22:30:09.574Z,13.27
2023-04-20T22:32:37.660Z,13.97
2023-04-20T22:35:05.251Z,14.00
2023-04-20T22:37:32.005Z,13.90
2023-04-20T22:39:59.178Z,14.70
2023-04-20T22:42:26.098Z,13.50
2023-04-20T22:44:53.182Z,13.30
2023-04-20T22:47:20.011Z,14.10
2023-04-20T22:49:47.436Z,14.97
2023-04-20T22:52:14.246Z,13.97
2023-04-20T22:54:41.644Z,14.33
2023-04-20T22:57:08.363Z,14.03
2023-04-20T22:59:35.345Z,13.00
2023-04-20T23:02:02.153Z,14.43
2023-04-20T23:04:29.722Z,15.03
2023-04-20T23:06:57.677Z,15.00
2023-04-20T23:09:24.745Z,15.17
2023-04-20T23:11:53.808Z,15.37
2023-04-20T23:14:22.513Z,15.20
2023-04-20T23:16:49.970Z,15.47
2023-04-20T23:19:17.401Z,15.23
2023-04-20T23:21:44.306Z,14.10
2023-04-20T23:24:11.413Z,15.70
2023-04-20T23:26:38.096Z,15.20
2023-04-20T23:29:05.213Z,14.67
2023-04-20T23:31:31.918Z,15.73
2023-04-20T23:33:58.972Z,15.10
2023-04-20T23:36:26.339Z,15.40
2023-04-20T23:38:53.446Z,16.60
2023-04-20T23:41:20.576Z,16.23
2023-04-20T23:43:47.546Z,15.10
2023-04-20T23:46:15.188Z,16.90
2023-04-20T23:48:42.191Z,15.47
2023-04-20T23:51:09.160Z,16.10
2023-04-20T23:53:37.450Z,17.23
2023-04-20T23:56:04.502Z,18.53
2023-04-20T23:58:32.076Z,17.30
